createdAt,value
2019-03-23T00:00:48.326Z,34.40
2019-03-23T00:03:18.575Z,34.53
2019-03-23T00:05:48.809Z,41.60
2019-03-23T00:08:19.051Z,32.45
2019-03-23T00:10:49.267Z,35.08
2019-03-23T00:13:19.488Z,31.55
2019-03-23T00:15:51.259Z,34.73
2019-03-23T00:18:21.479Z,40.20
2019-03-23T00:20:51.733Z,40.78
2019-03-23T00:23:22.073Z,42.05
2019-03-23T00:25:52.267Z,33.60
2019-03-23T00:28:22.476Z,39.70
2019-03-23T00:30:52.699Z,44.77
2019-03-23T00:33:22.910Z,44.27
2019-03-23T00:35:53.148Z,44.88
2019-03-23T00:38:23.462Z,42.75
2019-03-23T00:40:55.248Z,48.05
2019-03-23T00:43:25.444Z,47.55
2019-03-23T00:45:55.664Z,50.58
2019-03-23T00:48:25.907Z,47.05
2019-03-23T00:50:56.116Z,48.40
2019-03-23T00:53:26.330Z,48.20
2019-03-23T00:55:56.558Z,49.73
2019-03-23T00:58:26.744Z,48.15
2019-03-23T01:00:56.976Z,46.68
2019-03-23T01:03:27.179Z,49.50
2019-03-23T01:05:57.397Z,51.10
2019-03-23T01:08:27.611Z,52.00
2019-03-23T01:10:57.808Z,48.60
2019-03-23T01:13:28.118Z,50.00
2019-03-23T01:15:58.441Z,47.43
2019-03-23T01:18:28.727Z,46.95
2019-03-23T01:20:58.956Z,51.50
2019-03-23T01:23:29.144Z,49.25
2019-03-23T01:25:59.358Z,50.85
2019-03-23T01:28:29.658Z,51.92
2019-03-23T01:30:59.855Z,47.05
2019-03-23T01:33:30.048Z,43.58
2019-03-23T01:36:00.283Z,48.73
2019-03-23T01:38:30.473Z,44.08
2019-03-23T01:41:00.708Z,56.37
2019-03-23T01:43:31.088Z,49.80
2019-03-23T01:46:01.307Z,44.73
2019-03-23T01:48:33.043Z,44.38
2019-03-23T01:51:03.423Z,46.28
2019-03-23T01:53:33.952Z,44.20
2019-03-23T01:56:04.171Z,46.13
2019-03-23T01:58:34.366Z,45.98
2019-03-23T02:01:04.598Z,44.70
2019-03-23T02:03:34.877Z,49.77
2019-03-23T02:06:05.205Z,45.92
2019-03-23T02:08:35.385Z,46.70
2019-03-23T02:11:07.166Z,48.40
2019-03-23T02:13:37.357Z,49.13
2019-03-23T02:16:07.590Z,52.03
2019-03-23T02:18:39.376Z,51.50
2019-03-23T02:21:09.567Z,51.02
2019-03-23T02:23:39.806Z,49.58
2019-03-23T02:26:10.028Z,52.65
2019-03-23T02:28:40.245Z,50.03
2019-03-23T02:31:10.523Z,46.63
2019-03-23T02:33:43.896Z,57.78
2019-03-23T02:36:14.068Z,55.95
2019-03-23T02:38:44.291Z,50.15
2019-03-23T02:41:14.583Z,56.68
2019-03-23T02:43:44.839Z,52.33
2019-03-23T02:46:15.060Z,62.45
2019-03-23T02:48:46.857Z,72.58
2019-03-23T02:51:17.045Z,70.67
2019-03-23T02:53:47.381Z,72.30
2019-03-23T02:56:17.584Z,72.78
2019-03-23T02:58:47.812Z,68.02
2019-03-23T03:01:17.994Z,73.60
2019-03-23T03:03:48.213Z,76.55
2019-03-23T03:06:18.543Z,67.32
2019-03-23T03:08:48.812Z,71.53
2019-03-23T03:11:19.020Z,69.58
2019-03-23T03:13:49.245Z,84.58
2019-03-23T03:16:19.536Z,77.25
2019-03-23T03:18:49.761Z,71.97
2019-03-23T03:21:20.036Z,69.17
2019-03-23T03:23:50.237Z,73.33
2019-03-23T03:26:20.444Z,72.10
2019-03-23T03:28:50.989Z,70.62
2019-03-23T03:31:21.193Z,72.32
2019-03-23T03:33:51.429Z,70.72
2019-03-23T03:36:21.684Z,62.55
2019-03-23T03:38:51.920Z,63.02
2019-03-23T03:41:22.216Z,64.40
2019-03-23T03:43:52.493Z,63.10
2019-03-23T03:46:22.711Z,62.62
2019-03-23T03:48:53.038Z,63.80
2019-03-23T03:51:23.399Z,62.93
2019-03-23T03:53:53.583Z,65.78
2019-03-23T03:56:23.825Z,58.50
2019-03-23T03:58:54.032Z,59.23
2019-03-23T04:01:24.320Z,59.73
2019-03-23T04:03:54.533Z,59.73
2019-03-23T04:06:24.768Z,60.50
2019-03-23T04:08:55.490Z,63.98
2019-03-23T04:11:27.270Z,62.17
2019-03-23T04:13:57.452Z,67.27
2019-03-23T04:16:29.233Z,63.45
2019-03-23T04:18:59.499Z,66.22
2019-03-23T04:21:29.706Z,63.20
2019-03-23T04:23:59.949Z,60.90
2019-03-23T04:26:30.490Z,61.85
2019-03-23T04:29:00.913Z,65.75
2019-03-23T04:31:32.697Z,67.75
2019-03-23T04:34:02.885Z,67.75
2019-03-23T04:36:33.140Z,67.58
2019-03-23T04:39:04.532Z,61.90
2019-03-23T04:41:34.712Z,66.45
2019-03-23T04:44:06.624Z,71.82
2019-03-23T04:46:36.817Z,74.47
2019-03-23T04:49:07.044Z,82.50
2019-03-23T04:51:37.223Z,83.95
2019-03-23T04:54:07.415Z,81.92
2019-03-23T04:56:37.617Z,88.90
2019-03-23T04:59:07.841Z,88.97
2019-03-23T05:01:38.133Z,90.20
2019-03-23T05:04:08.331Z,101.30
2019-03-23T05:06:38.543Z,104.83
2019-03-23T05:09:09.697Z,100.53
2019-03-23T05:11:39.914Z,104.55
2019-03-23T05:14:11.156Z,102.62
2019-03-23T05:16:41.381Z,102.72
2019-03-23T05:19:13.235Z,107.30
2019-03-23T05:21:43.495Z,99.32
2019-03-23T05:24:13.735Z,94.52
2019-03-23T05:26:45.543Z,106.43
2019-03-23T05:29:16.079Z,114.70
2019-03-23T05:31:46.304Z,92.17
2019-03-23T05:34:16.496Z,95.15
2019-03-23T05:36:46.724Z,93.60
2019-03-23T05:39:16.977Z,83.58
2019-03-23T05:41:47.170Z,81.78
2019-03-23T05:44:17.383Z,80.22
2019-03-23T05:46:47.608Z,72.17
2019-03-23T05:49:17.792Z,80.32
2019-03-23T05:51:48.071Z,73.42
2019-03-23T05:54:18.472Z,73.07
2019-03-23T05:56:48.793Z,64.47
2019-03-23T05:59:18.999Z,59.18
2019-03-23T06:01:49.208Z,58.08
2019-03-23T06:04:19.413Z,61.50
2019-03-23T06:06:49.599Z,55.20
2019-03-23T06:09:19.799Z,66.47
2019-03-23T06:11:50.017Z,55.40
2019-03-23T06:14:20.199Z,53.83
2019-03-23T06:16:50.452Z,52.48
2019-03-23T06:19:20.732Z,49.45
2019-03-23T06:21:54.099Z,56.88
2019-03-23T06:24:24.471Z,56.75
2019-03-23T06:26:54.755Z,57.13
2019-03-23T06:29:26.566Z,55.38
2019-03-23T06:31:56.749Z,56.95
2019-03-23T06:34:26.971Z,56.15
2019-03-23T06:36:57.153Z,55.23
2019-03-23T06:39:27.367Z,52.80
2019-03-23T06:41:57.578Z,59.33
2019-03-23T06:44:27.780Z,54.20
2019-03-23T06:46:59.561Z,53.52
2019-03-23T06:49:29.764Z,53.42
2019-03-23T06:51:59.984Z,59.25
2019-03-23T06:54:30.180Z,55.60
2019-03-23T06:57:00.703Z,57.85
2019-03-23T06:59:30.948Z,55.98
2019-03-23T07:02:01.250Z,58.58
2019-03-23T07:04:31.474Z,56.63
2019-03-23T07:07:03.369Z,55.58
2019-03-23T07:09:33.649Z,63.85
2019-03-23T07:12:04.015Z,58.13
2019-03-23T07:14:34.404Z,58.05
2019-03-23T07:17:05.450Z,56.83
2019-03-23T07:19:35.655Z,55.28
2019-03-23T07:22:05.999Z,62.70
2019-03-23T07:24:36.207Z,61.10
2019-03-23T07:27:06.403Z,57.98
2019-03-23T07:29:36.711Z,62.20
2019-03-23T07:32:07.011Z,56.30
2019-03-23T07:34:37.317Z,60.65
2019-03-23T07:37:10.296Z,57.40
2019-03-23T07:39:40.523Z,55.25
2019-03-23T07:42:10.746Z,60.12
2019-03-23T07:44:40.971Z,55.43
2019-03-23T07:47:11.184Z,62.30
2019-03-23T07:49:41.457Z,65.30
2019-03-23T07:52:12.360Z,58.00
2019-03-23T07:54:42.549Z,56.30
2019-03-23T07:57:12.801Z,58.10
2019-03-23T07:59:43.039Z,59.08
2019-03-23T08:02:13.327Z,58.28
2019-03-23T08:04:43.518Z,57.27
2019-03-23T08:07:13.771Z,59.48
2019-03-23T08:09:44.163Z,60.90
2019-03-23T08:12:14.371Z,61.88
2019-03-23T08:14:44.598Z,64.15
2019-03-23T08:17:14.895Z,67.30
2019-03-23T08:19:54.246Z,70.30
2019-03-23T08:22:24.814Z,64.40
2019-03-23T08:24:55.036Z,66.75
2019-03-23T08:27:25.280Z,63.75
2019-03-23T08:29:55.515Z,66.15
2019-03-23T08:32:25.733Z,64.50
2019-03-23T08:34:58.039Z,71.37
2019-03-23T08:37:28.013Z,70.37
2019-03-23T08:39:58.232Z,63.33
2019-03-23T08:42:28.539Z,59.23
2019-03-23T08:44:58.808Z,60.10
2019-03-23T08:47:29.109Z,62.62
2019-03-23T08:49:59.735Z,66.87
2019-03-23T08:52:30.035Z,62.50
2019-03-23T08:55:01.061Z,62.20
2019-03-23T08:57:31.410Z,59.58
2019-03-23T09:00:01.597Z,59.73
2019-03-23T09:02:34.605Z,60.83
2019-03-23T09:05:05.926Z,57.67
2019-03-23T09:07:37.703Z,57.62
2019-03-23T09:10:08.391Z,64.07
2019-03-23T09:12:38.654Z,60.30
2019-03-23T09:15:09.609Z,59.48
2019-03-23T09:17:39.915Z,59.53
2019-03-23T09:20:12.248Z,58.20
2019-03-23T09:22:42.436Z,61.75
2019-03-23T09:25:12.624Z,57.20
2019-03-23T09:27:42.864Z,56.00
2019-03-23T09:30:13.294Z,52.05
2019-03-23T09:32:43.601Z,55.98
2019-03-23T09:35:13.805Z,53.28
2019-03-23T09:37:44.119Z,53.40
2019-03-23T09:40:14.725Z,59.80
2019-03-23T09:42:44.943Z,52.53
2019-03-23T09:45:15.126Z,48.92
2019-03-23T09:47:45.557Z,55.83
2019-03-23T09:50:15.809Z,57.17
2019-03-23T09:52:46.073Z,65.80
2019-03-23T09:55:16.300Z,69.15
2019-03-23T09:57:46.536Z,64.25
2019-03-23T10:00:16.737Z,62.70
2019-03-23T10:02:46.981Z,61.70
2019-03-23T10:05:17.176Z,67.17
2019-03-23T10:07:47.448Z,58.23
2019-03-23T10:10:22.040Z,54.75
2019-03-23T10:12:53.179Z,60.85
2019-03-23T10:15:25.059Z,64.67
2019-03-23T10:17:55.259Z,62.78
2019-03-23T10:20:25.476Z,61.35
2019-03-23T10:22:55.688Z,60.10
2019-03-23T10:25:25.983Z,72.00
2019-03-23T10:27:56.273Z,62.10
2019-03-23T10:30:28.568Z,62.55
2019-03-23T10:32:58.904Z,60.70
2019-03-23T10:35:29.089Z,60.38
2019-03-23T10:37:59.308Z,64.90
2019-03-23T10:40:32.640Z,53.08
2019-03-23T10:43:02.976Z,58.90
2019-03-23T10:45:40.022Z,52.53
2019-03-23T10:48:05.096Z,51.58
2019-03-23T10:50:35.306Z,60.12
2019-03-23T10:53:05.512Z,56.42
2019-03-23T10:55:35.751Z,57.40
2019-03-23T10:58:08.867Z,57.43
2019-03-23T11:00:39.206Z,51.45
2019-03-23T11:03:09.415Z,52.25
2019-03-23T11:05:39.682Z,51.95
2019-03-23T11:08:09.972Z,55.15
2019-03-23T11:10:41.971Z,48.25
2019-03-23T11:13:13.848Z,55.38
2019-03-23T11:15:44.132Z,50.98
2019-03-23T11:18:14.311Z,51.15
2019-03-23T11:20:44.521Z,56.05
2019-03-23T11:23:14.793Z,59.55
2019-03-23T11:25:45.108Z,63.60
2019-03-23T11:28:15.387Z,57.03
2019-03-23T11:30:45.727Z,53.87
2019-03-23T11:33:16.004Z,54.25
2019-03-23T11:35:46.220Z,55.15
2019-03-23T11:38:16.407Z,53.98
2019-03-23T11:40:52.909Z,53.25
2019-03-23T11:43:18.570Z,59.30
2019-03-23T11:45:48.783Z,61.50
2019-03-23T11:48:19.004Z,57.75
2019-03-23T11:50:49.196Z,61.20
2019-03-23T11:53:19.527Z,57.25
2019-03-23T11:55:51.374Z,50.05
2019-03-23T11:58:21.663Z,54.65
2019-03-23T12:00:53.452Z,52.45
2019-03-23T12:03:23.671Z,53.08
2019-03-23T12:05:53.931Z,54.90
2019-03-23T12:08:24.111Z,47.88
2019-03-23T12:11:02.490Z,56.73
2019-03-23T12:13:26.279Z,50.88
2019-03-23T12:15:56.469Z,62.38
2019-03-23T12:18:26.662Z,60.63
2019-03-23T12:20:56.920Z,57.03
2019-03-23T12:23:27.170Z,51.30
2019-03-23T12:25:59.012Z,41.95
2019-03-23T12:28:31.791Z,52.03
2019-03-23T12:31:02.049Z,42.40
2019-03-23T12:33:32.273Z,39.27
2019-03-23T12:36:02.496Z,33.88
2019-03-23T12:38:32.773Z,39.92
2019-03-23T12:41:11.505Z,48.83
2019-03-23T12:43:34.937Z,48.92
2019-03-23T12:46:05.189Z,42.15
2019-03-23T12:48:35.419Z,33.05
2019-03-23T12:51:05.636Z,28.62
2019-03-23T12:53:35.854Z,27.10
2019-03-23T12:56:06.158Z,31.65
2019-03-23T12:58:36.342Z,35.17
2019-03-23T13:01:08.260Z,36.95
2019-03-23T13:03:38.484Z,32.15
2019-03-23T13:06:10.261Z,37.30
2019-03-23T13:08:40.503Z,32.90
2019-03-23T13:11:10.764Z,27.80
2019-03-23T13:13:41.141Z,30.82
2019-03-23T13:16:11.386Z,28.95
2019-03-23T13:18:41.675Z,25.20
2019-03-23T13:21:11.900Z,21.40
2019-03-23T13:23:42.145Z,20.82
2019-03-23T13:26:12.343Z,31.62
2019-03-23T13:28:42.166Z,33.78
2019-03-23T13:31:12.497Z,31.42
2019-03-23T13:33:42.761Z,34.85
2019-03-23T13:36:13.261Z,28.17
2019-03-23T13:38:43.452Z,24.18
2019-03-23T13:41:13.667Z,33.15
2019-03-23T13:43:43.901Z,21.37
2019-03-23T13:46:14.099Z,16.48
2019-03-23T13:48:45.884Z,18.50
2019-03-23T13:51:16.092Z,20.88
2019-03-23T13:53:46.407Z,16.87
2019-03-23T13:56:16.653Z,21.80
2019-03-23T13:58:46.463Z,16.02
2019-03-23T14:01:16.689Z,15.30
2019-03-23T14:03:46.917Z,18.35
2019-03-23T14:06:17.136Z,16.65
2019-03-23T14:08:47.426Z,22.70
2019-03-23T14:11:17.652Z,16.52
2019-03-23T14:13:47.933Z,14.47
2019-03-23T14:16:18.167Z,20.27
2019-03-23T14:18:48.344Z,13.80
2019-03-23T14:21:18.628Z,12.28
2019-03-23T14:23:49.000Z,11.43
2019-03-23T14:26:19.181Z,12.03
2019-03-23T14:28:49.376Z,13.30
2019-03-23T14:31:19.624Z,15.78
2019-03-23T14:33:49.913Z,16.42
2019-03-23T14:36:20.124Z,11.03
2019-03-23T14:38:50.314Z,10.68
2019-03-23T14:41:20.521Z,12.85
2019-03-23T14:43:50.736Z,9.75
2019-03-23T14:46:20.968Z,11.12
2019-03-23T14:48:52.825Z,8.83
2019-03-23T14:51:23.113Z,10.72
2019-03-23T14:53:53.327Z,16.15
2019-03-23T14:56:23.633Z,9.08
2019-03-23T14:58:53.841Z,10.75
2019-03-23T15:01:24.078Z,12.05
2019-03-23T15:03:54.352Z,11.33
2019-03-23T15:06:24.571Z,11.15
2019-03-23T15:08:54.886Z,10.18
2019-03-23T15:11:25.159Z,9.05
2019-03-23T15:13:55.424Z,10.80
2019-03-23T15:16:25.748Z,12.03
2019-03-23T15:18:56.029Z,20.15
2019-03-23T15:21:26.224Z,14.05
2019-03-23T15:23:56.678Z,12.90
2019-03-23T15:26:26.904Z,10.60
2019-03-23T15:28:57.164Z,11.25
2019-03-23T15:31:27.367Z,11.00
2019-03-23T15:33:57.632Z,12.23
2019-03-23T15:36:28.761Z,14.98
2019-03-23T15:38:59.048Z,10.80
2019-03-23T15:41:29.308Z,16.62
2019-03-23T15:43:59.572Z,13.75
2019-03-23T15:46:31.382Z,16.07
2019-03-23T15:49:02.082Z,14.60
2019-03-23T15:51:32.285Z,11.00
2019-03-23T15:54:02.537Z,11.68
2019-03-23T15:56:32.747Z,14.53
2019-03-23T15:59:02.951Z,12.73
2019-03-23T16:01:33.164Z,13.22
2019-03-23T16:04:03.600Z,14.18
2019-03-23T16:06:33.783Z,13.05
2019-03-23T16:09:05.210Z,12.13
2019-03-23T16:11:35.452Z,12.82
2019-03-23T16:14:05.940Z,13.95
2019-03-23T16:16:37.714Z,12.03
2019-03-23T16:19:08.001Z,15.80
2019-03-23T16:21:38.224Z,20.92
2019-03-23T16:24:08.616Z,15.15
2019-03-23T16:26:38.845Z,11.85
2019-03-23T16:29:09.763Z,14.83
2019-03-23T16:31:40.350Z,11.22
2019-03-23T16:34:10.621Z,10.35
2019-03-23T16:36:41.164Z,10.03
2019-03-23T16:39:11.348Z,10.93
2019-03-23T16:41:41.588Z,10.40
2019-03-23T16:44:11.874Z,14.05
2019-03-23T16:46:42.054Z,12.03
2019-03-23T16:49:12.641Z,12.98
2019-03-23T16:51:42.869Z,13.03
2019-03-23T16:54:13.323Z,15.38
2019-03-23T16:56:43.541Z,12.88
2019-03-23T16:59:13.808Z,10.32
2019-03-23T17:01:44.099Z,13.72
2019-03-23T17:04:14.777Z,13.48
2019-03-23T17:06:46.574Z,26.45
2019-03-23T17:09:16.915Z,17.17
2019-03-23T17:11:47.118Z,11.15
2019-03-23T17:14:18.360Z,22.17
2019-03-23T17:16:50.153Z,10.35
2019-03-23T17:19:20.369Z,9.95
2019-03-23T17:21:50.585Z,12.53
2019-03-23T17:24:20.807Z,12.37
2019-03-23T17:26:51.033Z,26.27
2019-03-23T17:29:21.292Z,8.60
2019-03-23T17:31:51.828Z,12.43
2019-03-23T17:34:22.084Z,12.50
2019-03-23T17:36:52.304Z,20.62
2019-03-23T17:39:22.499Z,34.78
2019-03-23T17:41:52.730Z,18.60
2019-03-23T17:44:23.026Z,27.77
2019-03-23T17:46:53.367Z,38.92
2019-03-23T17:49:23.659Z,30.80
2019-03-23T17:51:55.491Z,23.30
2019-03-23T17:54:26.185Z,24.40
2019-03-23T17:56:56.499Z,18.62
2019-03-23T17:59:26.689Z,22.70
2019-03-23T18:01:56.915Z,18.48
2019-03-23T18:04:27.132Z,21.37
2019-03-23T18:06:57.371Z,18.92
2019-03-23T18:09:27.619Z,30.65
2019-03-23T18:11:57.821Z,139.43
2019-03-23T18:14:28.092Z,92.97
2019-03-23T18:16:58.395Z,38.80
2019-03-23T18:19:28.602Z,44.48
2019-03-23T18:21:58.837Z,37.63
2019-03-23T18:24:30.629Z,50.98
2019-03-23T18:27:00.949Z,33.15
2019-03-23T18:29:31.438Z,27.07
2019-03-23T18:32:01.827Z,31.82
2019-03-23T18:34:32.080Z,20.02
2019-03-23T18:37:02.308Z,24.37
2019-03-23T18:39:32.623Z,29.85
2019-03-23T18:42:02.959Z,31.73
2019-03-23T18:44:33.151Z,23.85
2019-03-23T18:47:03.389Z,24.75
2019-03-23T18:49:33.642Z,28.38
2019-03-23T18:52:03.848Z,26.15
2019-03-23T18:54:35.664Z,21.20
2019-03-23T18:57:05.864Z,27.48
2019-03-23T18:59:36.122Z,24.40
2019-03-23T19:02:06.533Z,23.25
2019-03-23T19:04:36.864Z,23.83
2019-03-23T19:07:07.051Z,27.32
2019-03-23T19:09:37.256Z,26.10
2019-03-23T19:12:07.556Z,20.17
2019-03-23T19:14:39.404Z,28.23
2019-03-23T19:17:09.774Z,22.32
2019-03-23T19:19:40.051Z,33.92
2019-03-23T19:22:10.323Z,33.40
2019-03-23T19:24:42.208Z,29.15
2019-03-23T19:27:12.403Z,28.07
2019-03-23T19:29:42.806Z,26.17
2019-03-23T19:32:13.024Z,28.32
2019-03-23T19:34:44.821Z,50.43
2019-03-23T19:37:15.119Z,39.03
2019-03-23T19:39:45.360Z,37.50
2019-03-23T19:42:15.676Z,35.20
2019-03-23T19:44:45.895Z,45.00
2019-03-23T19:47:16.095Z,31.45
2019-03-23T19:49:46.329Z,41.58
2019-03-23T19:52:16.576Z,30.40
2019-03-23T19:54:46.811Z,33.95
2019-03-23T19:57:18.632Z,32.23
2019-03-23T19:59:48.942Z,34.10
2019-03-23T20:02:19.208Z,36.77
2019-03-23T20:04:49.519Z,39.70
2019-03-23T20:07:21.268Z,37.33
2019-03-23T20:09:51.499Z,32.98
2019-03-23T20:12:23.247Z,29.65
2019-03-23T20:14:53.590Z,25.57
2019-03-23T20:17:23.782Z,32.25
2019-03-23T20:19:54.088Z,32.58
2019-03-23T20:22:24.490Z,35.60
2019-03-23T20:24:54.768Z,34.55
2019-03-23T20:27:25.008Z,35.70
2019-03-23T20:29:55.386Z,31.75
2019-03-23T20:32:25.912Z,25.08
2019-03-23T20:34:56.135Z,41.48
2019-03-23T20:37:26.333Z,30.68
2019-03-23T20:39:56.780Z,30.88
2019-03-23T20:42:26.983Z,28.47
2019-03-23T20:44:59.850Z,28.35
2019-03-23T20:47:30.044Z,29.55
2019-03-23T20:50:00.396Z,27.45
2019-03-23T20:52:30.772Z,35.98
2019-03-23T20:55:01.008Z,26.90
2019-03-23T20:57:37.331Z,28.07
2019-03-23T21:00:03.160Z,28.98
2019-03-23T21:02:33.473Z,28.45
2019-03-23T21:05:04.300Z,30.05
2019-03-23T21:07:34.504Z,32.78
2019-03-23T21:10:06.119Z,34.83
2019-03-23T21:12:36.358Z,29.55
2019-03-23T21:15:06.647Z,31.10
2019-03-23T21:17:41.407Z,32.23
2019-03-23T21:20:10.633Z,29.20
2019-03-23T21:22:40.936Z,31.02
2019-03-23T21:25:11.149Z,29.40
2019-03-23T21:27:41.477Z,30.92
2019-03-23T21:30:16.339Z,33.23
2019-03-23T21:32:46.531Z,32.15
2019-03-23T21:35:16.764Z,46.50
2019-03-23T21:37:46.992Z,40.45
2019-03-23T21:40:17.207Z,37.58
2019-03-23T21:42:47.500Z,33.83
2019-03-23T21:45:17.750Z,31.33
2019-03-23T21:47:49.518Z,33.70
2019-03-23T21:50:21.440Z,46.83
2019-03-23T21:52:51.618Z,43.58
2019-03-23T21:55:21.883Z,45.45
2019-03-23T21:57:52.078Z,35.68
2019-03-23T22:00:30.120Z,38.30
2019-03-23T22:03:00.522Z,36.88
2019-03-23T22:05:30.755Z,33.45
2019-03-23T22:08:01.012Z,36.10
2019-03-23T22:10:31.217Z,36.50
2019-03-23T22:13:01.515Z,38.98
2019-03-23T22:15:33.004Z,31.65
2019-03-23T22:18:03.252Z,35.92
2019-03-23T22:20:33.504Z,37.73
2019-03-23T22:23:03.746Z,35.20
2019-03-23T22:25:34.046Z,32.00
2019-03-23T22:28:04.344Z,43.95
2019-03-23T22:30:34.586Z,38.73
2019-03-23T22:33:04.818Z,35.25
2019-03-23T22:35:35.020Z,39.25
2019-03-23T22:38:05.316Z,33.50
2019-03-23T22:40:35.779Z,38.53
2019-03-23T22:43:05.987Z,38.08
2019-03-23T22:45:37.829Z,33.42
2019-03-23T22:48:08.145Z,36.40
2019-03-23T22:50:38.454Z,34.65
2019-03-23T22:53:08.702Z,30.43
2019-03-23T22:55:38.906Z,29.70
2019-03-23T22:58:09.229Z,32.23
2019-03-23T23:00:43.937Z,29.37
2019-03-23T23:03:14.220Z,31.40
2019-03-23T23:05:44.441Z,23.38
2019-03-23T23:08:14.656Z,31.57
2019-03-23T23:10:44.855Z,34.20
2019-03-23T23:13:15.072Z,29.60
2019-03-23T23:15:45.276Z,35.48
2019-03-23T23:18:17.060Z,27.65
2019-03-23T23:20:47.264Z,28.05
2019-03-23T23:23:19.059Z,28.90
2019-03-23T23:25:49.265Z,27.48
2019-03-23T23:28:19.460Z,27.50
2019-03-23T23:30:49.690Z,27.22
2019-03-23T23:33:19.891Z,24.02
2019-03-23T23:35:50.139Z,24.98
2019-03-23T23:38:20.787Z,28.32
2019-03-23T23:40:51.033Z,27.85
2019-03-23T23:43:21.249Z,30.12
2019-03-23T23:45:51.567Z,30.50
2019-03-23T23:48:21.792Z,28.57
2019-03-23T23:50:52.000Z,25.57
2019-03-23T23:53:22.225Z,33.08
2019-03-23T23:55:53.282Z,30.32
2019-03-23T23:58:23.552Z,32.65
